HTZA/ZNZ METAR and TAF weather

Enter ICAO airport designator
Station Type Date Time Source
HTZA METAR 2022/01/23 12:00 UTC NOAA

HTZA 231200Z 33010KT 9999 BKN020 FEW020CB 31/24 Q1009 NOSIG


Station Type Date Time Source
HTZA Decoded METAR 2022/01/23 12:00 UTC NOAA

Zanzibar / Kisauni, Tanzania (HTZA) 06-13S 039-13E 15M
Jan 23, 2022 - 07:00 AM EST / 2022.01.23 1200 UTC
Wind: from the NNW (330 degrees) at 12 MPH (10 KT):0
Visibility: greater than 7 mile(s):0
Sky conditions: mostly cloudy
Weather: Cumulonimbus clouds observed
Temperature: 87 F (31 C)
Heat index: 95.7 F (35.4 C):1
Dew Point: 75 F (24 C)
Relative Humidity: 66%
Pressure (altimeter): 29.80 in. Hg (1009 hPa)
ob: HTZA 231200Z 33010KT 9999 BKN020 FEW020CB 31/24 Q1009 NOSIG
cycle: 12

Station Type Date Time Source
HTZA TAF 2022/01/23 12:54 UTC NOAA

HTZA 231100Z 2312/2412 02015KT 9999 SCT018 FEW020CB BKN080
BECMG 2317/2319 02005KT
BECMG 2321/2323 36010KT BKN010 FEW012CB BKN070 PROB 30
TEMPO 2401/2406 5000 TSRA
BECMG 2409/2411 02015KT FEW018 FEW020CB BKN080

Example: see airport list